sensor_id;sensor_type;location;lat;lon;timestamp;pressure;altitude;pressure_sealevel;temperature;humidity
24486;BME280;13449;49.374;8.584;2022-10-16T00:01:43;100329.75;;;15.63;100.00
24486;BME280;13449;49.374;8.584;2022-10-16T00:04:10;100321.53;;;15.63;100.00
24486;BME280;13449;49.374;8.584;2022-10-16T00:06:36;100322.78;;;15.61;100.00
24486;BME280;13449;49.374;8.584;2022-10-16T00:09:03;100326.59;;;15.60;100.00
24486;BME280;13449;49.374;8.584;2022-10-16T00:11:34;100332.09;;;15.60;100.00
24486;BME280;13449;49.374;8.584;2022-10-16T00:14:06;100326.00;;;15.58;100.00
24486;BME280;13449;49.374;8.584;2022-10-16T00:16:34;100331.47;;;15.58;100.00
24486;BME280;13449;49.374;8.584;2022-10-16T00:19:03;100324.09;;;15.58;100.00
24486;BME280;13449;49.374;8.584;2022-10-16T00:21:30;100319.66;;;15.57;100.00
24486;BME280;13449;49.374;8.584;2022-10-16T00:24:06;100309.72;;;15.56;100.00
24486;BME280;13449;49.374;8.584;2022-10-16T00:26:34;100316.91;;;15.57;100.00
24486;BME280;13449;49.374;8.584;2022-10-16T00:29:01;100315.59;;;15.60;100.00
24486;BME280;13449;49.374;8.584;2022-10-16T00:31:28;100314.53;;;15.61;100.00
24486;BME280;13449;49.374;8.584;2022-10-16T00:33:55;100319.81;;;15.62;100.00
24486;BME280;13449;49.374;8.584;2022-10-16T00:36:24;100315.38;;;15.61;100.00
24486;BME280;13449;49.374;8.584;2022-10-16T00:38:55;100334.63;;;15.61;100.00
24486;BME280;13449;49.374;8.584;2022-10-16T00:41:26;100342.47;;;15.58;100.00
24486;BME280;13449;49.374;8.584;2022-10-16T00:44:00;100332.53;;;15.57;100.00
24486;BME280;13449;49.374;8.584;2022-10-16T00:46:31;100340.78;;;15.57;100.00
24486;BME280;13449;49.374;8.584;2022-10-16T00:51:42;100353.03;;;15.61;100.00
24486;BME280;13449;49.374;8.584;2022-10-16T00:54:13;100360.22;;;15.62;100.00
24486;BME280;13449;49.374;8.584;2022-10-16T00:56:41;100354.25;;;15.65;100.00
24486;BME280;13449;49.374;8.584;2022-10-16T00:59:15;100355.13;;;15.65;100.00
24486;BME280;13449;49.374;8.584;2022-10-16T01:01:42;100343.28;;;15.65;100.00
24486;BME280;13449;49.374;8.584;2022-10-16T01:04:09;100341.56;;;15.64;100.00
24486;BME280;13449;49.374;8.584;2022-10-16T01:09:39;100346.69;;;15.60;100.00
24486;BME280;13449;49.374;8.584;2022-10-16T01:12:38;100360.66;;;15.59;100.00
24486;BME280;13449;49.374;8.584;2022-10-16T01:15:13;100357.28;;;15.57;100.00
24486;BME280;13449;49.374;8.584;2022-10-16T01:20:37;100349.47;;;15.54;100.00
24486;BME280;13449;49.374;8.584;2022-10-16T01:28:32;100352.22;;;15.54;100.00
24486;BME280;13449;49.374;8.584;2022-10-16T01:31:03;100362.16;;;15.55;100.00
24486;BME280;13449;49.374;8.584;2022-10-16T01:33:38;100354.53;;;15.57;100.00
24486;BME280;13449;49.374;8.584;2022-10-16T01:36:12;100359.19;;;15.56;100.00
24486;BME280;13449;49.374;8.584;2022-10-16T01:38:40;100355.16;;;15.59;100.00
24486;BME280;13449;49.374;8.584;2022-10-16T01:41:13;100348.81;;;15.58;100.00
24486;BME280;13449;49.374;8.584;2022-10-16T01:44:10;100359.56;;;15.60;100.00
24486;BME280;13449;49.374;8.584;2022-10-16T01:46:42;100353.88;;;15.61;100.00
24486;BME280;13449;49.374;8.584;2022-10-16T01:49:10;100354.91;;;15.60;100.00
24486;BME280;13449;49.374;8.584;2022-10-16T01:51:41;100366.75;;;15.61;100.00
24486;BME280;13449;49.374;8.584;2022-10-16T01:54:11;100383.91;;;15.63;100.00
24486;BME280;13449;49.374;8.584;2022-10-16T01:56:40;100383.91;;;15.63;100.00
24486;BME280;13449;49.374;8.584;2022-10-16T01:59:15;100378.41;;;15.63;100.00
24486;BME280;13449;49.374;8.584;2022-10-16T02:01:49;100379.44;;;15.62;100.00
24486;BME280;13449;49.374;8.584;2022-10-16T02:04:24;100377.75;;;15.61;100.00
24486;BME280;13449;49.374;8.584;2022-10-16T02:06:57;100371.22;;;15.62;100.00
24486;BME280;13449;49.374;8.584;2022-10-16T02:09:24;100363.16;;;15.60;100.00
24486;BME280;13449;49.374;8.584;2022-10-16T02:11:52;100376.06;;;15.60;100.00
24486;BME280;13449;49.374;8.584;2022-10-16T02:14:23;100369.75;;;15.59;100.00
24486;BME280;13449;49.374;8.584;2022-10-16T02:16:51;100369.97;;;15.58;100.00
24486;BME280;13449;49.374;8.584;2022-10-16T02:19:18;100373.75;;;15.57;100.00
24486;BME280;13449;49.374;8.584;2022-10-16T02:21:56;100375.47;;;15.58;100.00
24486;BME280;13449;49.374;8.584;2022-10-16T02:24:33;100379.25;;;15.57;100.00
24486;BME280;13449;49.374;8.584;2022-10-16T02:27:13;100374.63;;;15.57;100.00
24486;BME280;13449;49.374;8.584;2022-10-16T02:29:47;100373.75;;;15.57;100.00
24486;BME280;13449;49.374;8.584;2022-10-16T02:32:23;100377.59;;;15.56;100.00
24486;BME280;13449;49.374;8.584;2022-10-16T02:34:51;100374.63;;;15.57;100.00
24486;BME280;13449;49.374;8.584;2022-10-16T02:37:20;100365.31;;;15.58;100.00
24486;BME280;13449;49.374;8.584;2022-10-16T02:39:47;100366.59;;;15.56;100.00
24486;BME280;13449;49.374;8.584;2022-10-16T02:42:15;100372.91;;;15.56;100.00
24486;BME280;13449;49.374;8.584;2022-10-16T02:44:41;100369.78;;;15.53;100.00
24486;BME280;13449;49.374;8.584;2022-10-16T02:47:08;100374.66;;;15.51;100.00
24486;BME280;13449;49.374;8.584;2022-10-16T02:49:39;100366.22;;;15.52;100.00
24486;BME280;13449;49.374;8.584;2022-10-16T02:52:05;100367.88;;;15.46;100.00
24486;BME280;13449;49.374;8.584;2022-10-16T02:54:34;100364.09;;;15.47;100.00
24486;BME280;13449;49.374;8.584;2022-10-16T02:57:00;100372.59;;;15.39;100.00
24486;BME280;13449;49.374;8.584;2022-10-16T02:59:27;100371.94;;;15.37;100.00
24486;BME280;13449;49.374;8.584;2022-10-16T03:01:53;100386.13;;;15.34;100.00
24486;BME280;13449;49.374;8.584;2022-10-16T03:04:19;100389.13;;;15.33;100.00
24486;BME280;13449;49.374;8.584;2022-10-16T03:06:46;100390.56;;;15.35;100.00
24486;BME280;13449;49.374;8.584;2022-10-16T03:09:12;100386.75;;;15.36;100.00
24486;BME280;13449;49.374;8.584;2022-10-16T03:11:39;100391.19;;;15.37;100.00
24486;BME280;13449;49.374;8.584;2022-10-16T03:14:05;100385.69;;;15.37;100.00
24486;BME280;13449;49.374;8.584;2022-10-16T03:16:34;100379.31;;;15.43;100.00
24486;BME280;13449;49.374;8.584;2022-10-16T03:19:01;100382.06;;;15.43;100.00
24486;BME280;13449;49.374;8.584;2022-10-16T03:21:27;100385.03;;;15.42;100.00
24486;BME280;13449;49.374;8.584;2022-10-16T03:23:53;100378.47;;;15.43;100.00
24486;BME280;13449;49.374;8.584;2022-10-16T03:26:20;100376.19;;;15.40;100.00
24486;BME280;13449;49.374;8.584;2022-10-16T03:28:46;100385.28;;;15.40;100.00
24486;BME280;13449;49.374;8.584;2022-10-16T03:31:15;100376.38;;;15.38;100.00
24486;BME280;13449;49.374;8.584;2022-10-16T03:33:46;100371.94;;;15.37;100.00
24486;BME280;13449;49.374;8.584;2022-10-16T03:36:13;100361.19;;;15.36;100.00
24486;BME280;13449;49.374;8.584;2022-10-16T03:38:39;100351.47;;;15.33;100.00
24486;BME280;13449;49.374;8.584;2022-10-16T03:41:06;100355.28;;;15.32;100.00
24486;BME280;13449;49.374;8.584;2022-10-16T03:43:33;100373.25;;;15.35;100.00
24486;BME280;13449;49.374;8.584;2022-10-16T03:46:00;100366.28;;;15.32;100.00
24486;BME280;13449;49.374;8.584;2022-10-16T03:48:27;100365.66;;;15.30;100.00
24486;BME280;13449;49.374;8.584;2022-10-16T03:50:54;100376.19;;;15.33;100.00
24486;BME280;13449;49.374;8.584;2022-10-16T03:53:21;100375.38;;;15.33;100.00
24486;BME280;13449;49.374;8.584;2022-10-16T03:55:47;100388.47;;;15.31;100.00
24486;BME280;13449;49.374;8.584;2022-10-16T03:58:16;100387.81;;;15.35;100.00
24486;BME280;13449;49.374;8.584;2022-10-16T04:00:44;100382.13;;;15.37;100.00
24486;BME280;13449;49.374;8.584;2022-10-16T04:03:11;100390.38;;;15.30;100.00
24486;BME280;13449;49.374;8.584;2022-10-16T04:05:38;100391.63;;;15.34;100.00
24486;BME280;13449;49.374;8.584;2022-10-16T04:08:05;100391.00;;;15.32;100.00
24486;BME280;13449;49.374;8.584;2022-10-16T04:10:31;100394.59;;;15.33;100.00
24486;BME280;13449;49.374;8.584;2022-10-16T04:12:58;100398.81;;;15.35;100.00
24486;BME280;13449;49.374;8.584;2022-10-16T04:15:25;100400.72;;;15.35;100.00
24486;BME280;13449;49.374;8.584;2022-10-16T04:17:52;100398.81;;;15.35;100.00
24486;BME280;13449;49.374;8.584;2022-10-16T04:20:18;100402.16;;;15.37;100.00
24486;BME280;13449;49.374;8.584;2022-10-16T04:22:45;100391.41;;;15.36;100.00
24486;BME280;13449;49.374;8.584;2022-10-16T04:25:14;100407.06;;;15.35;100.00
24486;BME280;13449;49.374;8.584;2022-10-16T04:27:42;100417.19;;;15.35;100.00
24486;BME280;13449;49.374;8.584;2022-10-16T04:30:12;100417.41;;;15.33;100.00
24486;BME280;13449;49.374;8.584;2022-10-16T04:32:39;100420.38;;;15.32;100.00
24486;BME280;13449;49.374;8.584;2022-10-16T04:35:06;100418.94;;;15.29;100.00
24486;BME280;13449;49.374;8.584;2022-10-16T04:37:33;100417.00;;;15.30;100.00
24486;BME280;13449;49.374;8.584;2022-10-16T04:40:02;100425.25;;;15.30;100.00
24486;BME280;13449;49.374;8.584;2022-10-16T04:42:29;100422.94;;;15.27;100.00
24486;BME280;13449;49.374;8.584;2022-10-16T04:44:55;100417.44;;;15.27;100.00
24486;BME280;13449;49.374;8.584;2022-10-16T04:47:22;100414.94;;;15.25;100.00
24486;BME280;13449;49.374;8.584;2022-10-16T04:49:51;100419.78;;;15.23;100.00
24486;BME280;13449;49.374;8.584;2022-10-16T04:52:17;100420.03;;;15.22;100.00
24486;BME280;13449;49.374;8.584;2022-10-16T04:54:45;100414.94;;;15.19;100.00
24486;BME280;13449;49.374;8.584;2022-10-16T04:57:17;100420.66;;;15.17;100.00
24486;BME280;13449;49.374;8.584;2022-10-16T04:59:43;100417.91;;;15.17;100.00
24486;BME280;13449;49.374;8.584;2022-10-16T05:02:12;100419.19;;;15.15;100.00
24486;BME280;13449;49.374;8.584;2022-10-16T05:04:41;100404.63;;;15.14;100.00
24486;BME280;13449;49.374;8.584;2022-10-16T05:07:10;100404.19;;;15.17;100.00
24486;BME280;13449;49.374;8.584;2022-10-16T05:09:36;100412.38;;;15.24;100.00
24486;BME280;13449;49.374;8.584;2022-10-16T05:12:05;100414.13;;;15.18;100.00
24486;BME280;13449;49.374;8.584;2022-10-16T05:14:32;100422.97;;;15.20;100.00
24486;BME280;13449;49.374;8.584;2022-10-16T05:16:59;100429.34;;;15.14;100.00
24486;BME280;13449;49.374;8.584;2022-10-16T05:19:30;100427.41;;;15.15;100.00
24486;BME280;13449;49.374;8.584;2022-10-16T05:21:57;100427.66;;;15.13;100.00
24486;BME280;13449;49.374;8.584;2022-10-16T05:24:23;100417.72;;;15.12;100.00
24486;BME280;13449;49.374;8.584;2022-10-16T05:26:50;100412.44;;;15.17;100.00
24486;BME280;13449;49.374;8.584;2022-10-16T05:29:17;100413.03;;;15.19;100.00
24486;BME280;13449;49.374;8.584;2022-10-16T05:31:43;100404.19;;;15.17;100.00
24486;BME280;13449;49.374;8.584;2022-10-16T05:34:10;100399.72;;;15.23;100.00
24486;BME280;13449;49.374;8.584;2022-10-16T05:36:36;100409.84;;;15.22;100.00
24486;BME280;13449;49.374;8.584;2022-10-16T05:39:03;100408.59;;;15.25;100.00
24486;BME280;13449;49.374;8.584;2022-10-16T05:41:33;100409.44;;;15.25;100.00
24486;BME280;13449;49.374;8.584;2022-10-16T05:43:59;100428.84;;;15.30;100.00
24486;BME280;13449;49.374;8.584;2022-10-16T05:46:25;100425.91;;;15.25;100.00
24486;BME280;13449;49.374;8.584;2022-10-16T05:48:52;100420.84;;;15.22;100.00
24486;BME280;13449;49.374;8.584;2022-10-16T05:51:19;100431.00;;;15.22;100.00
24486;BME280;13449;49.374;8.584;2022-10-16T05:53:46;100435.00;;;15.19;100.00
24486;BME280;13449;49.374;8.584;2022-10-16T05:56:12;100443.66;;;15.23;100.00
24486;BME280;13449;49.374;8.584;2022-10-16T05:58:39;100446.63;;;15.21;100.00
24486;BME280;13449;49.374;8.584;2022-10-16T06:01:16;100440.72;;;15.24;100.00
24486;BME280;13449;49.374;8.584;2022-10-16T06:03:44;100446.81;;;15.26;100.00
24486;BME280;13449;49.374;8.584;2022-10-16T06:06:24;100436.91;;;15.25;100.00
24486;BME280;13449;49.374;8.584;2022-10-16T06:08:55;100441.31;;;15.26;100.00
24486;BME280;13449;49.374;8.584;2022-10-16T06:11:29;100460.56;;;15.26;100.00
24486;BME280;13449;49.374;8.584;2022-10-16T06:13:59;100446.59;;;15.28;100.00
24486;BME280;13449;49.374;8.584;2022-10-16T06:16:28;100434.31;;;15.30;100.00
24486;BME280;13449;49.374;8.584;2022-10-16T06:19:00;100423.94;;;15.39;100.00
24486;BME280;13449;49.374;8.584;2022-10-16T06:21:30;100438.94;;;15.43;100.00
24486;BME280;13449;49.374;8.584;2022-10-16T06:23:57;100433.84;;;15.46;100.00
24486;BME280;13449;49.374;8.584;2022-10-16T06:26:27;100439.94;;;15.48;100.00
24486;BME280;13449;49.374;8.584;2022-10-16T06:28:55;100439.56;;;15.52;100.00
24486;BME280;13449;49.374;8.584;2022-10-16T06:31:23;100443.38;;;15.51;100.00
24486;BME280;13449;49.374;8.584;2022-10-16T06:33:54;100450.75;;;15.50;100.00
24486;BME280;13449;49.374;8.584;2022-10-16T06:36:21;100449.72;;;15.51;100.00
24486;BME280;13449;49.374;8.584;2022-10-16T06:38:47;100442.94;;;15.54;100.00
24486;BME280;13449;49.374;8.584;2022-10-16T06:41:17;100458.34;;;15.55;100.00
24486;BME280;13449;49.374;8.584;2022-10-16T06:43:44;100459.22;;;15.55;100.00
24486;BME280;13449;49.374;8.584;2022-10-16T06:46:13;100464.47;;;15.57;100.00
24486;BME280;13449;49.374;8.584;2022-10-16T06:48:40;100471.66;;;15.58;100.00
24486;BME280;13449;49.374;8.584;2022-10-16T06:51:15;100467.00;;;15.58;100.00
24486;BME280;13449;49.374;8.584;2022-10-16T06:53:50;100470.59;;;15.59;100.00
24486;BME280;13449;49.374;8.584;2022-10-16T06:56:30;100480.31;;;15.61;100.00
24486;BME280;13449;49.374;8.584;2022-10-16T06:58:57;100486.22;;;15.65;100.00
24486;BME280;13449;49.374;8.584;2022-10-16T07:01:27;100480.50;;;15.66;100.00
24486;BME280;13449;49.374;8.584;2022-10-16T07:03:56;100499.09;;;15.71;100.00
24486;BME280;13449;49.374;8.584;2022-10-16T07:06:25;100508.16;;;15.71;100.00
24486;BME280;13449;49.374;8.584;2022-10-16T07:08:52;100502.66;;;15.78;100.00
24486;BME280;13449;49.374;8.584;2022-10-16T07:11:23;100515.97;;;15.81;100.00
24486;BME280;13449;49.374;8.584;2022-10-16T07:13:50;100526.31;;;15.85;100.00
24486;BME280;13449;49.374;8.584;2022-10-16T07:16:23;100531.75;;;15.92;100.00
24486;BME280;13449;49.374;8.584;2022-10-16T07:18:50;100534.25;;;16.00;100.00
24486;BME280;13449;49.374;8.584;2022-10-16T07:21:21;100538.03;;;16.06;100.00
24486;BME280;13449;49.374;8.584;2022-10-16T07:23:55;100535.22;;;16.12;100.00
24486;BME280;13449;49.374;8.584;2022-10-16T07:26:23;100534.97;;;16.20;100.00
24486;BME280;13449;49.374;8.584;2022-10-16T07:28:50;100538.09;;;16.30;100.00
24486;BME280;13449;49.374;8.584;2022-10-16T07:31:20;100531.69;;;16.36;100.00
24486;BME280;13449;49.374;8.584;2022-10-16T07:33:47;100541.78;;;16.49;100.00
24486;BME280;13449;49.374;8.584;2022-10-16T07:36:19;100544.69;;;16.54;100.00
24486;BME280;13449;49.374;8.584;2022-10-16T07:38:46;100556.38;;;16.56;100.00
24486;BME280;13449;49.374;8.584;2022-10-16T07:41:14;100560.13;;;16.62;100.00
24486;BME280;13449;49.374;8.584;2022-10-16T07:43:49;100554.41;;;16.63;100.00
24486;BME280;13449;49.374;8.584;2022-10-16T07:46:17;100563.06;;;16.67;100.00
24486;BME280;13449;49.374;8.584;2022-10-16T07:48:44;100570.00;;;16.69;100.00
24486;BME280;13449;49.374;8.584;2022-10-16T07:51:19;100582.50;;;16.72;100.00
24486;BME280;13449;49.374;8.584;2022-10-16T07:53:47;100574.41;;;16.77;100.00
24486;BME280;13449;49.374;8.584;2022-10-16T07:56:14;100584.69;;;16.88;100.00
24486;BME280;13449;49.374;8.584;2022-10-16T07:58:41;100585.19;;;17.03;100.00
24486;BME280;13449;49.374;8.584;2022-10-16T08:01:13;100573.50;;;17.08;100.00
24486;BME280;13449;49.374;8.584;2022-10-16T08:03:46;100572.66;;;17.07;100.00
24486;BME280;13449;49.374;8.584;2022-10-16T08:06:17;100573.13;;;17.04;100.00
24486;BME280;13449;49.374;8.584;2022-10-16T08:08:49;100574.09;;;17.10;100.00
24486;BME280;13449;49.374;8.584;2022-10-16T08:11:15;100578.00;;;17.02;100.00
24486;BME280;13449;49.374;8.584;2022-10-16T08:13:42;100577.22;;;17.20;100.00
24486;BME280;13449;49.374;8.584;2022-10-16T08:16:08;100585.09;;;17.16;100.00
24486;BME280;13449;49.374;8.584;2022-10-16T08:18:37;100594.50;;;17.09;100.00
24486;BME280;13449;49.374;8.584;2022-10-16T08:21:10;100592.88;;;17.01;100.00
24486;BME280;13449;49.374;8.584;2022-10-16T08:23:46;100589.00;;;17.02;100.00
24486;BME280;13449;49.374;8.584;2022-10-16T08:26:16;100583.19;;;16.92;100.00
24486;BME280;13449;49.374;8.584;2022-10-16T08:28:43;100587.81;;;16.98;100.00
24486;BME280;13449;49.374;8.584;2022-10-16T08:31:12;100593.00;;;17.06;100.00
24486;BME280;13449;49.374;8.584;2022-10-16T08:33:41;100600.50;;;16.99;100.00
24486;BME280;13449;49.374;8.584;2022-10-16T08:36:10;100597.00;;;17.10;100.00
24486;BME280;13449;49.374;8.584;2022-10-16T08:38:39;100604.69;;;17.26;100.00
24486;BME280;13449;49.374;8.584;2022-10-16T08:43:52;100606.88;;;17.43;100.00
24486;BME280;13449;49.374;8.584;2022-10-16T08:46:44;100615.25;;;17.54;100.00
24486;BME280;13449;49.374;8.584;2022-10-16T08:49:16;100614.69;;;17.46;100.00
24486;BME280;13449;49.374;8.584;2022-10-16T08:51:43;100623.09;;;17.57;100.00
24486;BME280;13449;49.374;8.584;2022-10-16T08:57:09;100642.56;;;17.80;100.00
24486;BME280;13449;49.374;8.584;2022-10-16T08:59:37;100639.09;;;17.85;100.00
24486;BME280;13449;49.374;8.584;2022-10-16T09:02:27;100646.94;;;17.88;100.00
24486;BME280;13449;49.374;8.584;2022-10-16T09:07:49;100680.56;;;18.15;100.00
24486;BME280;13449;49.374;8.584;2022-10-16T09:10:38;100693.59;;;18.08;100.00
24486;BME280;13449;49.374;8.584;2022-10-16T09:16:35;100690.78;;;18.14;100.00
24486;BME280;13449;49.374;8.584;2022-10-16T09:21:36;100691.13;;;18.00;100.00
24486;BME280;13449;49.374;8.584;2022-10-16T09:24:14;100688.03;;;18.14;100.00
24486;BME280;13449;49.374;8.584;2022-10-16T09:26:42;100697.50;;;18.37;100.00
24486;BME280;13449;49.374;8.584;2022-10-16T09:29:13;100686.13;;;18.45;100.00
24486;BME280;13449;49.374;8.584;2022-10-16T09:31:41;100683.84;;;18.42;100.00
24486;BME280;13449;49.374;8.584;2022-10-16T09:34:20;100695.88;;;18.47;100.00
24486;BME280;13449;49.374;8.584;2022-10-16T09:36:51;100694.50;;;18.38;100.00
24486;BME280;13449;49.374;8.584;2022-10-16T09:39:18;100694.13;;;18.34;100.00
24486;BME280;13449;49.374;8.584;2022-10-16T09:41:44;100692.44;;;18.33;100.00
24486;BME280;13449;49.374;8.584;2022-10-16T09:47:20;100678.47;;;18.47;100.00
24486;BME280;13449;49.374;8.584;2022-10-16T09:50:19;100684.00;;;18.47;100.00
24486;BME280;13449;49.374;8.584;2022-10-16T09:52:46;100682.63;;;18.56;100.00
24486;BME280;13449;49.374;8.584;2022-10-16T09:55:15;100689.72;;;18.63;100.00
24486;BME280;13449;49.374;8.584;2022-10-16T09:57:52;100695.41;;;18.68;100.00
24486;BME280;13449;49.374;8.584;2022-10-16T10:00:22;100695.56;;;18.73;100.00
24486;BME280;13449;49.374;8.584;2022-10-16T10:02:52;100697.94;;;18.70;100.00
24486;BME280;13449;49.374;8.584;2022-10-16T10:05:22;100701.31;;;18.72;100.00
24486;BME280;13449;49.374;8.584;2022-10-16T10:07:59;100702.06;;;18.79;100.00
24486;BME280;13449;49.374;8.584;2022-10-16T10:10:28;100705.13;;;18.89;100.00
24486;BME280;13449;49.374;8.584;2022-10-16T10:12:56;100700.81;;;18.93;100.00
24486;BME280;13449;49.374;8.584;2022-10-16T10:15:23;100700.81;;;18.93;100.00
24486;BME280;13449;49.374;8.584;2022-10-16T10:17:54;100703.03;;;18.85;100.00
24486;BME280;13449;49.374;8.584;2022-10-16T10:20:27;100707.03;;;18.89;100.00
24486;BME280;13449;49.374;8.584;2022-10-16T10:22:55;100705.06;;;18.77;100.00
24486;BME280;13449;49.374;8.584;2022-10-16T10:33:37;100689.38;;;19.01;100.00
24486;BME280;13449;49.374;8.584;2022-10-16T10:36:16;100693.59;;;18.92;100.00
24486;BME280;13449;49.374;8.584;2022-10-16T10:44:54;100695.19;;;19.11;100.00
24486;BME280;13449;49.374;8.584;2022-10-16T10:52:45;100682.53;;;19.45;100.00
24486;BME280;13449;49.374;8.584;2022-10-16T10:55:31;100689.69;;;19.35;100.00
24486;BME280;13449;49.374;8.584;2022-10-16T11:01:12;100689.66;;;19.53;100.00
24486;BME280;13449;49.374;8.584;2022-10-16T11:06:36;100674.34;;;19.62;98.66
24486;BME280;13449;49.374;8.584;2022-10-16T11:09:12;100671.50;;;19.57;98.33
24486;BME280;13449;49.374;8.584;2022-10-16T11:19:37;100686.63;;;19.66;100.00
24486;BME280;13449;49.374;8.584;2022-10-16T11:22:17;100694.56;;;19.62;98.79
24486;BME280;13449;49.374;8.584;2022-10-16T11:27:26;100689.66;;;19.64;100.00
24486;BME280;13449;49.374;8.584;2022-10-16T11:29:59;100684.84;;;19.60;100.00
24486;BME280;13449;49.374;8.584;2022-10-16T11:32:32;100684.94;;;19.65;100.00
24486;BME280;13449;49.374;8.584;2022-10-16T11:35:08;100683.00;;;19.54;100.00
24486;BME280;13449;49.374;8.584;2022-10-16T11:37:41;100671.00;;;19.60;98.31
24486;BME280;13449;49.374;8.584;2022-10-16T11:40:24;100667.41;;;19.71;97.80
24486;BME280;13449;49.374;8.584;2022-10-16T11:42:58;100663.50;;;19.84;94.55
24486;BME280;13449;49.374;8.584;2022-10-16T11:45:36;100664.38;;;19.72;95.67
24486;BME280;13449;49.374;8.584;2022-10-16T11:48:35;100665.69;;;19.70;96.26
24486;BME280;13449;49.374;8.584;2022-10-16T11:51:14;100672.22;;;19.64;97.76
24486;BME280;13449;49.374;8.584;2022-10-16T11:53:51;100672.44;;;19.74;92.56
24486;BME280;13449;49.374;8.584;2022-10-16T11:56:21;100674.72;;;19.89;96.97
24486;BME280;13449;49.374;8.584;2022-10-16T11:59:18;100685.19;;;19.98;100.00
24486;BME280;13449;49.374;8.584;2022-10-16T12:01:52;100690.91;;;20.20;100.00
24486;BME280;13449;49.374;8.584;2022-10-16T12:04:46;100678.75;;;20.33;100.00
24486;BME280;13449;49.374;8.584;2022-10-16T12:07:23;100676.09;;;20.38;95.79
24486;BME280;13449;49.374;8.584;2022-10-16T12:09:51;100675.09;;;20.44;95.55
24486;BME280;13449;49.374;8.584;2022-10-16T12:15:27;100673.81;;;20.35;95.27
24486;BME280;13449;49.374;8.584;2022-10-16T12:18:24;100672.97;;;20.34;95.35
24486;BME280;13449;49.374;8.584;2022-10-16T12:20:55;100674.16;;;20.38;96.26
24486;BME280;13449;49.374;8.584;2022-10-16T12:23:25;100675.00;;;20.39;94.02
24486;BME280;13449;49.374;8.584;2022-10-16T12:25:57;100667.88;;;20.43;94.01
24486;BME280;13449;49.374;8.584;2022-10-16T12:28:36;100654.97;;;20.48;94.82
24486;BME280;13449;49.374;8.584;2022-10-16T12:31:06;100660.78;;;20.47;90.56
24486;BME280;13449;49.374;8.584;2022-10-16T12:33:34;100665.19;;;20.48;86.61
24486;BME280;13449;49.374;8.584;2022-10-16T12:36:11;100661.31;;;20.60;88.69
24486;BME280;13449;49.374;8.584;2022-10-16T12:38:50;100660.06;;;20.68;93.23
24486;BME280;13449;49.374;8.584;2022-10-16T12:41:26;100668.78;;;20.60;87.71
24486;BME280;13449;49.374;8.584;2022-10-16T12:43:53;100662.84;;;20.68;88.18
24486;BME280;13449;49.374;8.584;2022-10-16T12:46:36;100651.59;;;20.74;95.85
24486;BME280;13449;49.374;8.584;2022-10-16T12:49:22;100654.28;;;20.69;89.18
24486;BME280;13449;49.374;8.584;2022-10-16T12:51:51;100645.88;;;20.64;91.26
24486;BME280;13449;49.374;8.584;2022-10-16T12:54:29;100650.22;;;20.60;87.45
24486;BME280;13449;49.374;8.584;2022-10-16T13:10:46;100673.78;;;20.74;91.31
24486;BME280;13449;49.374;8.584;2022-10-16T13:13:54;100664.09;;;20.77;91.72
24486;BME280;13449;49.374;8.584;2022-10-16T13:16:33;100665.63;;;20.68;88.58
24486;BME280;13449;49.374;8.584;2022-10-16T13:19:45;100681.44;;;20.56;93.84
24486;BME280;13449;49.374;8.584;2022-10-16T13:22:39;100676.56;;;20.46;98.53
24486;BME280;13449;49.374;8.584;2022-10-16T13:28:00;100682.28;;;20.28;96.65
24486;BME280;13449;49.374;8.584;2022-10-16T13:30:34;100685.63;;;20.07;95.81
24486;BME280;13449;49.374;8.584;2022-10-16T13:33:18;100680.81;;;20.02;95.46
24486;BME280;13449;49.374;8.584;2022-10-16T13:35:57;100687.81;;;19.93;94.64
24486;BME280;13449;49.374;8.584;2022-10-16T13:38:26;100684.84;;;19.83;92.87
24486;BME280;13449;49.374;8.584;2022-10-16T13:41:02;100678.69;;;19.81;93.58
24486;BME280;13449;49.374;8.584;2022-10-16T13:46:20;100681.94;;;19.78;92.89
24486;BME280;13449;49.374;8.584;2022-10-16T13:49:04;100683.28;;;19.75;94.13
24486;BME280;13449;49.374;8.584;2022-10-16T13:51:32;100681.22;;;19.71;95.61
24486;BME280;13449;49.374;8.584;2022-10-16T13:53:59;100672.78;;;19.66;94.92
24486;BME280;13449;49.374;8.584;2022-10-16T13:56:28;100667.25;;;19.66;95.53
24486;BME280;13449;49.374;8.584;2022-10-16T13:59:07;100669.66;;;19.74;90.35
24486;BME280;13449;49.374;8.584;2022-10-16T14:01:52;100659.69;;;19.73;95.23
24486;BME280;13449;49.374;8.584;2022-10-16T14:04:21;100679.91;;;19.73;90.30
24486;BME280;13449;49.374;8.584;2022-10-16T14:06:50;100678.94;;;19.68;95.38
24486;BME280;13449;49.374;8.584;2022-10-16T14:11:57;100660.28;;;19.52;97.89
24486;BME280;13449;49.374;8.584;2022-10-16T14:14:27;100663.66;;;19.54;95.50
24486;BME280;13449;49.374;8.584;2022-10-16T14:17:00;100674.59;;;19.49;95.24
24486;BME280;13449;49.374;8.584;2022-10-16T14:19:28;100687.34;;;19.50;93.94
24486;BME280;13449;49.374;8.584;2022-10-16T14:21:56;100684.47;;;19.45;98.63
24486;BME280;13449;49.374;8.584;2022-10-16T14:26:57;100687.53;;;19.37;99.72
24486;BME280;13449;49.374;8.584;2022-10-16T14:29:26;100688.63;;;19.36;100.00
24486;BME280;13449;49.374;8.584;2022-10-16T14:32:05;100676.84;;;19.28;100.00
24486;BME280;13449;49.374;8.584;2022-10-16T14:34:36;100692.84;;;19.26;95.70
24486;BME280;13449;49.374;8.584;2022-10-16T14:37:26;100676.69;;;19.23;99.02
24486;BME280;13449;49.374;8.584;2022-10-16T14:39:54;100680.31;;;19.24;99.51